Portada
METAR-TAF:

METAR-TAF

Aeropuertos :

Aeropuerto Zenata

Tremecén, Argelia

latitud: 35-01N, longitud: 001-28W, altitud: 247 m

Observación

El informe se hizo hace 19 minutos, a las 22:00 UTC
Viento calma
Temperatura 15°C
Humedad 72%
Presión 1019 hPa
Visibilidad 10 km o más
sin nubes por debajo de 1500 m y sin presencia de cumulonimbus.

METAR: DAON 162200Z 00000KT CAVOK 15/10 Q1019

Hora: 23:19 (22:19 UTC)

Pronóstico

El informe se hizo hace 5 horas y 19 minutos, a las 17:00 UTC
Pronóstico válido del 16 a las 18 UTC al 17 a las 18 UTC
Viento 10 kt del norte
Visibilidad 10 km o más
Escasas nubes a una altura de 2600 ft
Evolucionando progresivamente
del 16 a las 21 UTC al 16 a las 23 UTC
Viento 2 kt con dirección variable
Evolucionando progresivamente
del 17 a las 12 UTC al 17 a las 15 UTC
Viento 11 kt del norte

TAF: DAON 161700Z 1618/1718 35010KT 9999 FEW026 BECMG 1621/1623 VRB02KT BECMG 1712/1715 01011KT

Observaciones y pronósticos meteorológicos de más de 4000 aeropuertos (mensajes METAR y TAF).

Los puntos amarillos y rojos representan las estaciones disponibles.

Ponga el ratón en el punto deseado para ver el nombre de la estación.

Haga clic para ver las observaciones y los pronósticos meteorológicos.

Para cambiar el mapa : haga clic en los botones verdes con una cruz de color negro para hacer un zoom, en el botón verde con un guión para alejar o en las flechas verdes para mapas adyacentes.


METAR-TAF: